TimeEST,TemperatureF,Dew PointF,Humidity,Sea Level PressureIn,VisibilityMPH,Wind Direction,Wind SpeedMPH,Gust SpeedMPH,PrecipitationIn,Events,Conditions,WindDirDegrees,DateUTC
12:58 AM,62.8,59.9,90,30.20,10.0,NE,10.4,-,N/A,,Mostly Cloudy,50,2013-12-27 05:58:00
1:58 AM,61.5,59.4,93,30.18,10.0,ENE,10.4,-,N/A,,Overcast,60,2013-12-27 06:58:00
2:58 AM,61.2,59.5,94,30.18,10.0,NE,11.5,-,N/A,,Mostly Cloudy,50,2013-12-27 07:58:00
3:58 AM,61.0,59.5,95,30.18,10.0,NE,10.4,-,N/A,,Mostly Cloudy,50,2013-12-27 08:58:00
4:58 AM,60.4,59.4,96,30.19,10.0,NE,13.8,-,N/A,,Overcast,50,2013-12-27 09:58:00
5:58 AM,59.9,58.5,95,30.20,10.0,ENE,12.7,-,N/A,,Mostly Cloudy,70,2013-12-27 10:58:00
6:58 AM,60.4,59.0,95,30.21,10.0,ENE,13.8,-,N/A,,Mostly Cloudy,70,2013-12-27 11:58:00
7:40 AM,60.8,59.0,94,30.22,10.0,ENE,11.5,-,N/A,Rain,Light Rain,70,2013-12-27 12:40:00
7:58 AM,61.2,59.7,95,30.23,10.0,ENE,10.4,-,0.00,,Light Drizzle,60,2013-12-27 12:58:00
8:00 AM,60.8,60.8,100,30.22,10.0,ENE,10.4,-,N/A,,Mostly Cloudy,60,2013-12-27 13:00:00
8:58 AM,62.8,61.2,94,30.24,10.0,ENE,13.8,-,0.00,,Scattered Clouds,70,2013-12-27 13:58:00
9:58 AM,64.6,61.7,90,30.25,10.0,East,13.8,-,N/A,,Partly Cloudy,80,2013-12-27 14:58:00
10:15 AM,64.4,62.6,94,30.25,10.0,East,13.8,-,N/A,,Light Drizzle,80,2013-12-27 15:15:00
10:58 AM,64.6,62.4,93,30.27,10.0,ENE,11.5,-,0.00,Rain,Light Rain,70,2013-12-27 15:58:00
11:28 AM,64.4,62.6,94,30.25,10.0,ENE,10.4,-,N/A,Rain,Light Rain,70,2013-12-27 16:28:00
11:33 AM,64.4,62.6,94,30.25,10.0,ENE,10.4,-,N/A,Rain,Light Rain,70,2013-12-27 16:33:00
11:43 AM,64.4,62.6,94,30.25,10.0,ENE,10.4,-,N/A,Rain,Light Rain,70,2013-12-27 16:43:00
11:58 AM,64.0,63.3,97,30.25,10.0,ENE,10.4,-,0.02,Rain,Light Rain,70,2013-12-27 16:58:00
12:53 PM,66.2,64.4,94,30.21,10.0,ENE,13.8,-,N/A,,Clear,70,2013-12-27 17:53:00
12:58 PM,65.7,65.3,99,30.22,10.0,East,11.5,-,0.01,,Clear,80,2013-12-27 17:58:00
1:58 PM,69.4,66.7,91,30.17,10.0,East,17.3,-,N/A,,Clear,90,2013-12-27 18:58:00
2:58 PM,70.0,66.9,90,30.17,10.0,East,11.5,-,N/A,,Partly Cloudy,80,2013-12-27 19:58:00
3:58 PM,70.5,66.9,88,30.15,10.0,East,15.0,-,N/A,,Partly Cloudy,80,2013-12-27 20:58:00
4:58 PM,70.9,66.0,85,30.19,10.0,NE,10.4,-,N/A,,Partly Cloudy,50,2013-12-27 21:58:00
5:18 PM,68.0,66.2,94,30.19,10.0,NE,6.9,-,N/A,,Mostly Cloudy,50,2013-12-27 22:18:00
5:38 PM,68.0,64.4,88,30.19,10.0,ENE,12.7,-,N/A,,Scattered Clouds,60,2013-12-27 22:38:00
5:58 PM,66.7,64.4,92,30.20,10.0,ENE,9.2,-,N/A,,Clear,60,2013-12-27 22:58:00
6:58 PM,66.0,64.2,94,30.22,10.0,ENE,16.1,-,N/A,,Mostly Cloudy,70,2013-12-27 23:58:00
7:58 PM,65.5,64.6,97,30.23,10.0,ENE,15.0,-,N/A,,Scattered Clouds,70,2013-12-28 00:58:00
8:58 PM,65.1,64.6,98,30.23,10.0,East,12.7,-,N/A,,Clear,80,2013-12-28 01:58:00
9:58 PM,64.6,64.2,99,30.24,10.0,ENE,13.8,-,N/A,,Clear,70,2013-12-28 02:58:00
10:58 PM,63.9,63.7,99,30.24,10.0,ENE,12.7,-,N/A,,Partly Cloudy,70,2013-12-28 03:58:00
11:58 PM,64.2,63.9,99,30.23,10.0,East,12.7,-,N/A,,Mostly Cloudy,80,2013-12-28 04:58:00